sensor_id;sensor_type;location;lat;lon;timestamp;P1;durP1;ratioP1;P2;durP2;ratioP2
63406;SDS011;49543;45.892;10.838;2023-04-24T08:07:40;1.35;;;1.25;;
63406;SDS011;49543;45.892;10.838;2023-04-24T08:10:08;1.40;;;1.10;;
63406;SDS011;49543;45.892;10.838;2023-04-24T08:12:35;1.00;;;1.00;;
63406;SDS011;49543;45.892;10.838;2023-04-24T08:15:00;1.00;;;0.90;;
63406;SDS011;49543;45.892;10.838;2023-04-24T08:17:26;1.00;;;1.00;;
63406;SDS011;49543;45.892;10.838;2023-04-24T08:19:51;1.10;;;0.85;;
63406;SDS011;49543;45.892;10.838;2023-04-24T08:22:24;1.67;;;1.00;;
63406;SDS011;49543;45.892;10.838;2023-04-24T08:24:49;1.65;;;1.02;;
63406;SDS011;49543;45.892;10.838;2023-04-24T08:27:15;0.90;;;0.90;;
63406;SDS011;49543;45.892;10.838;2023-04-24T08:29:40;0.85;;;0.82;;
63406;SDS011;49543;45.892;10.838;2023-04-24T08:32:05;1.38;;;0.95;;
63406;SDS011;49543;45.892;10.838;2023-04-24T08:34:31;1.20;;;1.10;;
63406;SDS011;49543;45.892;10.838;2023-04-24T08:36:56;1.75;;;1.05;;
63406;SDS011;49543;45.892;10.838;2023-04-24T08:39:22;1.38;;;0.93;;
63406;SDS011;49543;45.892;10.838;2023-04-24T08:41:48;1.40;;;1.30;;
63406;SDS011;49543;45.892;10.838;2023-04-24T08:44:13;1.25;;;1.15;;
63406;SDS011;49543;45.892;10.838;2023-04-24T08:46:41;0.90;;;0.90;;
63406;SDS011;49543;45.892;10.838;2023-04-24T08:49:08;1.33;;;1.23;;
63406;SDS011;49543;45.892;10.838;2023-04-24T08:51:33;1.45;;;1.35;;
63406;SDS011;49543;45.892;10.838;2023-04-24T08:53:59;3.20;;;1.70;;
63406;SDS011;49543;45.892;10.838;2023-04-24T08:56:24;1.50;;;1.40;;
63406;SDS011;49543;45.892;10.838;2023-04-24T08:58:51;2.17;;;1.50;;
63406;SDS011;49543;45.892;10.838;2023-04-24T09:01:19;1.88;;;1.08;;
63406;SDS011;49543;45.892;10.838;2023-04-24T09:03:46;1.40;;;1.30;;
63406;SDS011;49543;45.892;10.838;2023-04-24T09:06:14;1.02;;;1.02;;
63406;SDS011;49543;45.892;10.838;2023-04-24T09:08:41;1.20;;;0.88;;
63406;SDS011;49543;45.892;10.838;2023-04-24T09:11:08;0.95;;;0.95;;
63406;SDS011;49543;45.892;10.838;2023-04-24T09:13:34;11.13;;;4.05;;
63406;SDS011;49543;45.892;10.838;2023-04-24T09:16:00;13.27;;;3.95;;
63406;SDS011;49543;45.892;10.838;2023-04-24T09:18:26;7.93;;;2.80;;
63406;SDS011;49543;45.892;10.838;2023-04-24T09:21:02;1.55;;;1.40;;
63406;SDS011;49543;45.892;10.838;2023-04-24T09:23:32;1.70;;;1.55;;
63406;SDS011;49543;45.892;10.838;2023-04-24T09:25:58;4.40;;;2.05;;
63406;SDS011;49543;45.892;10.838;2023-04-24T09:28:46;2.30;;;1.60;;
63406;SDS011;49543;45.892;10.838;2023-04-24T09:31:14;2.75;;;1.52;;
63406;SDS011;49543;45.892;10.838;2023-04-24T09:33:56;5.38;;;2.38;;
63406;SDS011;49543;45.892;10.838;2023-04-24T09:36:28;5.95;;;2.10;;
63406;SDS011;49543;45.892;10.838;2023-04-24T09:39:06;2.15;;;1.30;;
63406;SDS011;49543;45.892;10.838;2023-04-24T09:41:47;1.20;;;1.10;;
63406;SDS011;49543;45.892;10.838;2023-04-24T09:44:18;1.73;;;1.10;;
63406;SDS011;49543;45.892;10.838;2023-04-24T09:47:05;1.27;;;1.00;;
63406;SDS011;49543;45.892;10.838;2023-04-24T09:49:34;1.05;;;1.05;;
63406;SDS011;49543;45.892;10.838;2023-04-24T09:54:33;0.95;;;0.95;;
63406;SDS011;49543;45.892;10.838;2023-04-24T09:56:58;1.17;;;1.08;;
63406;SDS011;49543;45.892;10.838;2023-04-24T09:59:25;1.10;;;1.10;;
63406;SDS011;49543;45.892;10.838;2023-04-24T10:01:51;2.10;;;1.25;;
63406;SDS011;49543;45.892;10.838;2023-04-24T10:04:22;1.40;;;1.30;;
63406;SDS011;49543;45.892;10.838;2023-04-24T10:06:49;1.30;;;1.23;;
63406;SDS011;49543;45.892;10.838;2023-04-24T10:09:16;2.00;;;1.90;;
63406;SDS011;49543;45.892;10.838;2023-04-24T10:11:46;1.90;;;1.80;;
63406;SDS011;49543;45.892;10.838;2023-04-24T10:14:14;1.92;;;1.83;;
63406;SDS011;49543;45.892;10.838;2023-04-24T10:16:41;1.80;;;1.70;;
63406;SDS011;49543;45.892;10.838;2023-04-24T10:19:07;1.83;;;1.73;;
63406;SDS011;49543;45.892;10.838;2023-04-24T10:21:34;1.75;;;1.65;;
63406;SDS011;49543;45.892;10.838;2023-04-24T10:24:02;2.05;;;1.88;;
63406;SDS011;49543;45.892;10.838;2023-04-24T10:26:29;2.10;;;1.90;;
63406;SDS011;49543;45.892;10.838;2023-04-24T10:28:55;1.60;;;1.50;;
63406;SDS011;49543;45.892;10.838;2023-04-24T10:31:22;1.83;;;1.60;;
63406;SDS011;49543;45.892;10.838;2023-04-24T10:33:49;1.45;;;1.35;;
63406;SDS011;49543;45.892;10.838;2023-04-24T10:36:16;1.60;;;1.50;;
63406;SDS011;49543;45.892;10.838;2023-04-24T10:38:43;1.50;;;1.40;;
63406;SDS011;49543;45.892;10.838;2023-04-24T10:41:12;1.33;;;1.23;;
63406;SDS011;49543;45.892;10.838;2023-04-24T10:46:07;1.20;;;1.15;;
63406;SDS011;49543;45.892;10.838;2023-04-24T10:48:35;1.13;;;1.13;;
63406;SDS011;49543;45.892;10.838;2023-04-24T10:51:10;1.52;;;1.42;;
63406;SDS011;49543;45.892;10.838;2023-04-24T10:53:37;1.23;;;1.17;;
63406;SDS011;49543;45.892;10.838;2023-04-24T10:56:07;1.23;;;1.23;;
63406;SDS011;49543;45.892;10.838;2023-04-24T11:01:09;1.00;;;1.00;;
63406;SDS011;49543;45.892;10.838;2023-04-24T11:03:59;1.85;;;1.75;;
63406;SDS011;49543;45.892;10.838;2023-04-24T11:06:43;2.08;;;1.70;;
63406;SDS011;49543;45.892;10.838;2023-04-24T11:09:09;1.25;;;1.10;;
63406;SDS011;49543;45.892;10.838;2023-04-24T11:11:37;1.33;;;0.95;;
63406;SDS011;49543;45.892;10.838;2023-04-24T11:14:09;1.08;;;1.00;;
63406;SDS011;49543;45.892;10.838;2023-04-24T11:16:44;1.75;;;1.05;;
63406;SDS011;49543;45.892;10.838;2023-04-24T11:19:17;1.20;;;1.10;;
63406;SDS011;49543;45.892;10.838;2023-04-24T11:24:27;0.98;;;0.90;;
63406;SDS011;49543;45.892;10.838;2023-04-24T11:27:01;2.08;;;1.40;;
63406;SDS011;49543;45.892;10.838;2023-04-24T11:32:18;1.50;;;1.13;;
63406;SDS011;49543;45.892;10.838;2023-04-24T11:35:00;1.40;;;1.30;;
63406;SDS011;49543;45.892;10.838;2023-04-24T11:37:38;1.35;;;1.25;;
63406;SDS011;49543;45.892;10.838;2023-04-24T11:40:05;2.05;;;1.92;;
63406;SDS011;49543;45.892;10.838;2023-04-24T11:42:36;1.50;;;1.40;;
63406;SDS011;49543;45.892;10.838;2023-04-24T11:45:07;1.60;;;1.40;;
63406;SDS011;49543;45.892;10.838;2023-04-24T11:47:34;1.60;;;1.50;;
63406;SDS011;49543;45.892;10.838;2023-04-24T11:50:00;1.50;;;1.40;;
63406;SDS011;49543;45.892;10.838;2023-04-24T11:52:26;1.20;;;1.10;;
63406;SDS011;49543;45.892;10.838;2023-04-24T11:54:52;1.58;;;1.40;;
63406;SDS011;49543;45.892;10.838;2023-04-24T11:57:21;2.28;;;2.08;;
63406;SDS011;49543;45.892;10.838;2023-04-24T11:59:48;1.50;;;1.40;;
63406;SDS011;49543;45.892;10.838;2023-04-24T12:02:24;1.85;;;1.40;;
63406;SDS011;49543;45.892;10.838;2023-04-24T12:04:51;1.60;;;1.50;;
63406;SDS011;49543;45.892;10.838;2023-04-24T12:07:17;1.30;;;1.20;;
63406;SDS011;49543;45.892;10.838;2023-04-24T12:09:44;1.20;;;1.20;;
63406;SDS011;49543;45.892;10.838;2023-04-24T12:12:13;1.23;;;1.10;;
63406;SDS011;49543;45.892;10.838;2023-04-24T12:14:43;1.10;;;1.10;;
63406;SDS011;49543;45.892;10.838;2023-04-24T12:17:09;1.30;;;1.20;;
63406;SDS011;49543;45.892;10.838;2023-04-24T12:19:35;2.00;;;1.90;;
63406;SDS011;49543;45.892;10.838;2023-04-24T12:22:01;1.08;;;1.02;;
63406;SDS011;49543;45.892;10.838;2023-04-24T12:24:29;1.15;;;1.05;;
63406;SDS011;49543;45.892;10.838;2023-04-24T12:26:55;1.52;;;1.05;;
63406;SDS011;49543;45.892;10.838;2023-04-24T12:29:21;1.40;;;1.30;;
63406;SDS011;49543;45.892;10.838;2023-04-24T12:31:47;1.25;;;1.15;;
63406;SDS011;49543;45.892;10.838;2023-04-24T12:34:19;1.17;;;1.08;;
63406;SDS011;49543;45.892;10.838;2023-04-24T12:36:46;1.02;;;0.90;;
63406;SDS011;49543;45.892;10.838;2023-04-24T12:39:19;1.27;;;1.17;;
63406;SDS011;49543;45.892;10.838;2023-04-24T12:41:50;1.13;;;1.10;;
63406;SDS011;49543;45.892;10.838;2023-04-24T12:44:16;2.05;;;1.10;;
63406;SDS011;49543;45.892;10.838;2023-04-24T12:46:41;1.42;;;1.02;;
63406;SDS011;49543;45.892;10.838;2023-04-24T12:49:07;1.30;;;1.20;;
63406;SDS011;49543;45.892;10.838;2023-04-24T12:51:32;1.50;;;1.17;;
63406;SDS011;49543;45.892;10.838;2023-04-24T12:53:58;2.35;;;1.17;;
63406;SDS011;49543;45.892;10.838;2023-04-24T12:56:23;0.88;;;0.88;;
63406;SDS011;49543;45.892;10.838;2023-04-24T12:58:49;0.98;;;0.85;;
63406;SDS011;49543;45.892;10.838;2023-04-24T13:01:16;0.80;;;0.80;;
63406;SDS011;49543;45.892;10.838;2023-04-24T13:03:41;0.80;;;0.80;;
63406;SDS011;49543;45.892;10.838;2023-04-24T13:06:07;0.90;;;0.90;;
63406;SDS011;49543;45.892;10.838;2023-04-24T13:08:33;0.70;;;0.70;;
63406;SDS011;49543;45.892;10.838;2023-04-24T13:10:58;0.70;;;0.70;;
63406;SDS011;49543;45.892;10.838;2023-04-24T13:13:24;0.70;;;0.60;;
63406;SDS011;49543;45.892;10.838;2023-04-24T13:15:49;0.70;;;0.60;;
63406;SDS011;49543;45.892;10.838;2023-04-24T15:17:41;2.13;;;2.00;;
63406;SDS011;49543;45.892;10.838;2023-04-24T15:20:06;1.63;;;1.52;;
63406;SDS011;49543;45.892;10.838;2023-04-24T15:22:32;2.80;;;2.00;;
63406;SDS011;49543;45.892;10.838;2023-04-24T15:24:58;1.08;;;1.00;;
63406;SDS011;49543;45.892;10.838;2023-04-24T15:27:23;1.00;;;1.00;;
63406;SDS011;49543;45.892;10.838;2023-04-24T15:29:49;0.93;;;0.90;;
63406;SDS011;49543;45.892;10.838;2023-04-24T15:32:14;0.90;;;0.90;;
63406;SDS011;49543;45.892;10.838;2023-04-24T15:34:40;0.82;;;0.82;;
63406;SDS011;49543;45.892;10.838;2023-04-24T15:37:06;2.78;;;1.10;;
63406;SDS011;49543;45.892;10.838;2023-04-24T15:39:31;1.20;;;1.10;;
63406;SDS011;49543;45.892;10.838;2023-04-24T15:41:57;2.75;;;2.42;;
63406;SDS011;49543;45.892;10.838;2023-04-24T15:44:25;5.78;;;5.28;;
63406;SDS011;49543;45.892;10.838;2023-04-24T15:46:50;4.38;;;3.97;;
63406;SDS011;49543;45.892;10.838;2023-04-24T15:49:16;3.70;;;3.40;;
63406;SDS011;49543;45.892;10.838;2023-04-24T15:51:42;2.45;;;2.25;;
63406;SDS011;49543;45.892;10.838;2023-04-24T15:54:07;1.80;;;1.70;;
63406;SDS011;49543;45.892;10.838;2023-04-24T15:56:33;2.35;;;1.95;;
63406;SDS011;49543;45.892;10.838;2023-04-24T15:59:00;1.50;;;1.40;;
63406;SDS011;49543;45.892;10.838;2023-04-24T16:01:25;2.22;;;1.35;;
63406;SDS011;49543;45.892;10.838;2023-04-24T16:03:51;2.40;;;1.35;;
63406;SDS011;49543;45.892;10.838;2023-04-24T16:06:16;2.30;;;1.80;;
63406;SDS011;49543;45.892;10.838;2023-04-24T16:08:41;1.90;;;1.80;;
63406;SDS011;49543;45.892;10.838;2023-04-24T16:11:07;15.40;;;4.40;;
63406;SDS011;49543;45.892;10.838;2023-04-24T16:13:32;6.90;;;3.00;;
63406;SDS011;49543;45.892;10.838;2023-04-24T16:15:58;6.72;;;3.28;;
63406;SDS011;49543;45.892;10.838;2023-04-24T16:18:24;27.33;;;6.93;;
63406;SDS011;49543;45.892;10.838;2023-04-24T16:20:49;30.70;;;8.68;;
63406;SDS011;49543;45.892;10.838;2023-04-24T16:23:15;11.00;;;3.40;;
63406;SDS011;49543;45.892;10.838;2023-04-24T16:25:40;4.63;;;2.30;;
63406;SDS011;49543;45.892;10.838;2023-04-24T16:28:06;2.97;;;1.90;;
63406;SDS011;49543;45.892;10.838;2023-04-24T16:30:31;2.10;;;1.88;;
63406;SDS011;49543;45.892;10.838;2023-04-24T16:32:57;2.60;;;1.70;;
63406;SDS011;49543;45.892;10.838;2023-04-24T16:35:22;4.20;;;2.25;;
63406;SDS011;49543;45.892;10.838;2023-04-24T16:37:48;5.32;;;3.20;;
63406;SDS011;49543;45.892;10.838;2023-04-24T16:40:13;3.05;;;2.22;;
63406;SDS011;49543;45.892;10.838;2023-04-24T16:42:39;6.75;;;3.25;;
63406;SDS011;49543;45.892;10.838;2023-04-24T16:45:05;4.00;;;2.83;;
63406;SDS011;49543;45.892;10.838;2023-04-24T16:47:30;3.28;;;2.40;;
63406;SDS011;49543;45.892;10.838;2023-04-24T16:49:56;3.35;;;2.15;;
63406;SDS011;49543;45.892;10.838;2023-04-24T16:52:22;1.92;;;1.70;;
63406;SDS011;49543;45.892;10.838;2023-04-24T16:54:47;5.90;;;2.40;;
63406;SDS011;49543;45.892;10.838;2023-04-24T16:57:14;6.88;;;2.75;;
63406;SDS011;49543;45.892;10.838;2023-04-24T16:59:40;3.42;;;1.95;;
63406;SDS011;49543;45.892;10.838;2023-04-24T17:02:05;3.17;;;2.30;;
63406;SDS011;49543;45.892;10.838;2023-04-24T17:04:31;2.00;;;1.80;;
63406;SDS011;49543;45.892;10.838;2023-04-24T17:06:59;1.88;;;1.30;;
63406;SDS011;49543;45.892;10.838;2023-04-24T17:09:25;1.70;;;1.60;;
63406;SDS011;49543;45.892;10.838;2023-04-24T17:11:50;2.17;;;1.45;;
63406;SDS011;49543;45.892;10.838;2023-04-24T17:14:16;1.45;;;1.35;;
63406;SDS011;49543;45.892;10.838;2023-04-24T17:16:41;3.55;;;1.40;;
63406;SDS011;49543;45.892;10.838;2023-04-24T17:19:07;1.95;;;1.35;;
63406;SDS011;49543;45.892;10.838;2023-04-24T17:21:32;1.63;;;1.40;;
63406;SDS011;49543;45.892;10.838;2023-04-24T17:23:58;1.38;;;1.27;;
63406;SDS011;49543;45.892;10.838;2023-04-24T17:26:23;2.15;;;1.00;;
63406;SDS011;49543;45.892;10.838;2023-04-24T17:28:49;3.25;;;1.20;;
63406;SDS011;49543;45.892;10.838;2023-04-24T17:31:18;1.65;;;1.30;;
63406;SDS011;49543;45.892;10.838;2023-04-24T17:33:43;1.80;;;1.70;;
63406;SDS011;49543;45.892;10.838;2023-04-24T17:36:09;3.10;;;2.80;;
63406;SDS011;49543;45.892;10.838;2023-04-24T17:38:34;5.53;;;5.07;;
63406;SDS011;49543;45.892;10.838;2023-04-24T17:41:00;14.55;;;13.45;;
63406;SDS011;49543;45.892;10.838;2023-04-24T17:43:26;11.00;;;10.20;;
63406;SDS011;49543;45.892;10.838;2023-04-24T17:45:52;5.97;;;5.47;;
63406;SDS011;49543;45.892;10.838;2023-04-24T17:48:23;3.08;;;2.85;;
63406;SDS011;49543;45.892;10.838;2023-04-24T17:50:48;2.08;;;1.98;;
63406;SDS011;49543;45.892;10.838;2023-04-24T17:53:14;2.38;;;2.20;;
63406;SDS011;49543;45.892;10.838;2023-04-24T17:55:40;2.53;;;2.13;;
63406;SDS011;49543;45.892;10.838;2023-04-24T17:58:07;1.90;;;1.80;;
63406;SDS011;49543;45.892;10.838;2023-04-24T18:00:33;2.35;;;1.45;;
63406;SDS011;49543;45.892;10.838;2023-04-24T18:02:59;1.58;;;1.48;;
63406;SDS011;49543;45.892;10.838;2023-04-24T18:05:27;2.45;;;1.50;;
63406;SDS011;49543;45.892;10.838;2023-04-24T18:07:53;2.15;;;1.50;;
63406;SDS011;49543;45.892;10.838;2023-04-24T18:10:19;5.25;;;4.32;;
63406;SDS011;49543;45.892;10.838;2023-04-24T18:12:45;8.25;;;7.55;;
63406;SDS011;49543;45.892;10.838;2023-04-24T18:15:11;7.78;;;7.05;;
63406;SDS011;49543;45.892;10.838;2023-04-24T18:17:36;3.30;;;3.00;;
63406;SDS011;49543;45.892;10.838;2023-04-24T18:20:02;2.22;;;2.10;;
63406;SDS011;49543;45.892;10.838;2023-04-24T18:22:28;8.48;;;6.80;;
63406;SDS011;49543;45.892;10.838;2023-04-24T18:24:53;8.98;;;7.68;;
63406;SDS011;49543;45.892;10.838;2023-04-24T18:27:19;3.38;;;3.08;;
63406;SDS011;49543;45.892;10.838;2023-04-24T18:29:44;3.05;;;1.90;;
63406;SDS011;49543;45.892;10.838;2023-04-24T18:32:10;1.58;;;1.48;;
63406;SDS011;49543;45.892;10.838;2023-04-24T18:34:35;2.85;;;2.60;;
63406;SDS011;49543;45.892;10.838;2023-04-24T18:37:01;6.28;;;5.65;;
63406;SDS011;49543;45.892;10.838;2023-04-24T18:39:26;17.23;;;15.43;;
63406;SDS011;49543;45.892;10.838;2023-04-24T18:41:52;12.52;;;11.23;;
63406;SDS011;49543;45.892;10.838;2023-04-24T18:44:18;7.28;;;6.60;;
63406;SDS011;49543;45.892;10.838;2023-04-24T18:46:43;4.20;;;3.78;;
63406;SDS011;49543;45.892;10.838;2023-04-24T18:49:09;6.65;;;5.18;;
63406;SDS011;49543;45.892;10.838;2023-04-24T18:51:34;10.52;;;7.50;;
63406;SDS011;49543;45.892;10.838;2023-04-24T18:54:00;32.25;;;21.90;;
63406;SDS011;49543;45.892;10.838;2023-04-24T18:56:26;13.38;;;9.05;;
63406;SDS011;49543;45.892;10.838;2023-04-24T18:58:51;9.63;;;7.30;;
63406;SDS011;49543;45.892;10.838;2023-04-24T19:01:19;12.95;;;9.77;;
63406;SDS011;49543;45.892;10.838;2023-04-24T19:03:45;31.27;;;23.05;;
63406;SDS011;49543;45.892;10.838;2023-04-24T19:06:10;30.63;;;23.27;;
63406;SDS011;49543;45.892;10.838;2023-04-24T19:08:36;17.55;;;14.55;;
63406;SDS011;49543;45.892;10.838;2023-04-24T19:11:02;8.27;;;7.47;;
63406;SDS011;49543;45.892;10.838;2023-04-24T19:13:28;5.47;;;4.88;;
63406;SDS011;49543;45.892;10.838;2023-04-24T19:15:54;4.72;;;4.07;;
63406;SDS011;49543;45.892;10.838;2023-04-24T19:18:19;2.90;;;2.28;;
63406;SDS011;49543;45.892;10.838;2023-04-24T19:20:45;2.03;;;1.90;;
63406;SDS011;49543;45.892;10.838;2023-04-24T19:23:10;1.98;;;1.88;;
63406;SDS011;49543;45.892;10.838;2023-04-24T19:25:36;2.10;;;2.00;;
63406;SDS011;49543;45.892;10.838;2023-04-24T19:28:01;2.03;;;1.90;;
63406;SDS011;49543;45.892;10.838;2023-04-24T19:30:27;2.30;;;2.10;;
63406;SDS011;49543;45.892;10.838;2023-04-24T19:32:52;2.28;;;2.17;;
63406;SDS011;49543;45.892;10.838;2023-04-24T19:35:18;2.20;;;2.10;;
63406;SDS011;49543;45.892;10.838;2023-04-24T19:37:43;2.03;;;1.90;;
63406;SDS011;49543;45.892;10.838;2023-04-24T19:40:09;2.47;;;2.28;;
63406;SDS011;49543;45.892;10.838;2023-04-24T19:42:36;2.55;;;2.40;;
63406;SDS011;49543;45.892;10.838;2023-04-24T19:45:02;2.75;;;2.53;;
63406;SDS011;49543;45.892;10.838;2023-04-24T19:47:28;2.00;;;1.90;;
63406;SDS011;49543;45.892;10.838;2023-04-24T19:49:53;2.00;;;1.90;;
63406;SDS011;49543;45.892;10.838;2023-04-24T19:52:18;2.42;;;2.15;;
63406;SDS011;49543;45.892;10.838;2023-04-24T19:54:45;3.58;;;3.28;;
63406;SDS011;49543;45.892;10.838;2023-04-24T19:57:10;3.30;;;3.00;;
63406;SDS011;49543;45.892;10.838;2023-04-24T19:59:36;3.20;;;2.60;;
63406;SDS011;49543;45.892;10.838;2023-04-24T20:02:01;3.30;;;2.42;;
63406;SDS011;49543;45.892;10.838;2023-04-24T20:04:27;1.85;;;1.73;;
63406;SDS011;49543;45.892;10.838;2023-04-24T20:06:52;2.00;;;1.90;;
63406;SDS011;49543;45.892;10.838;2023-04-24T20:09:18;2.40;;;2.20;;
63406;SDS011;49543;45.892;10.838;2023-04-24T20:11:43;3.17;;;2.97;;
63406;SDS011;49543;45.892;10.838;2023-04-24T20:14:10;3.67;;;3.38;;
63406;SDS011;49543;45.892;10.838;2023-04-24T20:16:36;4.78;;;4.15;;
63406;SDS011;49543;45.892;10.838;2023-04-24T20:19:02;3.92;;;3.63;;
63406;SDS011;49543;45.892;10.838;2023-04-24T20:21:28;3.83;;;3.42;;
63406;SDS011;49543;45.892;10.838;2023-04-24T20:23:53;3.70;;;3.40;;
63406;SDS011;49543;45.892;10.838;2023-04-24T20:26:18;3.38;;;3.08;;
63406;SDS011;49543;45.892;10.838;2023-04-24T20:28:44;3.40;;;3.17;;
63406;SDS011;49543;45.892;10.838;2023-04-24T20:31:10;3.45;;;3.15;;
63406;SDS011;49543;45.892;10.838;2023-04-24T20:33:35;2.65;;;2.30;;
63406;SDS011;49543;45.892;10.838;2023-04-24T20:36:05;3.00;;;2.40;;
63406;SDS011;49543;45.892;10.838;2023-04-24T20:38:31;4.63;;;3.25;;
63406;SDS011;49543;45.892;10.838;2023-04-24T20:40:57;4.35;;;3.95;;
63406;SDS011;49543;45.892;10.838;2023-04-24T20:43:24;5.15;;;4.63;;
63406;SDS011;49543;45.892;10.838;2023-04-24T20:45:50;4.57;;;3.60;;
63406;SDS011;49543;45.892;10.838;2023-04-24T20:48:16;3.30;;;3.03;;
63406;SDS011;49543;45.892;10.838;2023-04-24T20:50:41;2.85;;;2.65;;
63406;SDS011;49543;45.892;10.838;2023-04-24T20:53:07;2.72;;;2.53;;
63406;SDS011;49543;45.892;10.838;2023-04-24T20:55:33;3.25;;;2.95;;
63406;SDS011;49543;45.892;10.838;2023-04-24T20:57:59;3.65;;;3.35;;
63406;SDS011;49543;45.892;10.838;2023-04-24T21:00:25;3.40;;;2.67;;
63406;SDS011;49543;45.892;10.838;2023-04-24T21:02:51;3.13;;;2.70;;
63406;SDS011;49543;45.892;10.838;2023-04-24T21:05:16;3.08;;;2.72;;
63406;SDS011;49543;45.892;10.838;2023-04-24T21:07:41;2.78;;;2.58;;
63406;SDS011;49543;45.892;10.838;2023-04-24T21:10:07;4.57;;;2.30;;
63406;SDS011;49543;45.892;10.838;2023-04-24T21:12:33;2.15;;;2.00;;
63406;SDS011;49543;45.892;10.838;2023-04-24T21:14:58;2.33;;;1.63;;
63406;SDS011;49543;45.892;10.838;2023-04-24T21:17:25;1.95;;;1.75;;
63406;SDS011;49543;45.892;10.838;2023-04-24T21:19:50;1.92;;;1.70;;
63406;SDS011;49543;45.892;10.838;2023-04-24T21:22:16;1.90;;;1.80;;
63406;SDS011;49543;45.892;10.838;2023-04-24T21:24:41;1.80;;;1.63;;
63406;SDS011;49543;45.892;10.838;2023-04-24T21:27:07;2.17;;;2.00;;
63406;SDS011;49543;45.892;10.838;2023-04-24T21:29:33;1.95;;;1.85;;
63406;SDS011;49543;45.892;10.838;2023-04-24T21:31:59;3.90;;;3.60;;
63406;SDS011;49543;45.892;10.838;2023-04-24T21:34:26;4.47;;;3.92;;
63406;SDS011;49543;45.892;10.838;2023-04-24T21:36:51;4.50;;;3.35;;
63406;SDS011;49543;45.892;10.838;2023-04-24T21:39:16;2.97;;;2.70;;
